createdAt,value
2024-02-10T00:00:19.988Z,13.20
2024-02-10T00:02:51.582Z,13.13
2024-02-10T00:05:17.907Z,13.16
2024-02-10T00:07:52.139Z,13.10
2024-02-10T00:10:21.106Z,13.15
2024-02-10T00:12:47.562Z,13.20
2024-02-10T00:15:15.050Z,13.08
2024-02-10T00:17:41.326Z,13.18
2024-02-10T00:20:13.985Z,13.25
2024-02-10T00:22:40.118Z,13.19
2024-02-10T00:25:06.567Z,13.26
2024-02-10T00:27:32.365Z,13.25
2024-02-10T00:29:59.213Z,13.18
2024-02-10T00:32:25.046Z,13.17
2024-02-10T00:34:50.894Z,13.31
2024-02-10T00:37:17.104Z,13.29
2024-02-10T00:39:44.809Z,13.13
2024-02-10T00:42:12.081Z,13.24
2024-02-10T00:44:38.653Z,13.26
2024-02-10T00:47:13.038Z,13.26
2024-02-10T00:49:39.837Z,13.20
2024-02-10T00:52:08.842Z,13.27
2024-02-10T00:54:38.391Z,13.23
2024-02-10T00:57:10.839Z,13.28
2024-02-10T00:59:41.564Z,13.29
2024-02-10T01:02:18.218Z,13.27
2024-02-10T01:04:44.722Z,13.25
2024-02-10T01:07:10.814Z,13.27
2024-02-10T01:09:39.281Z,13.26
2024-02-10T01:12:06.155Z,13.25
2024-02-10T01:14:32.732Z,13.18
2024-02-10T01:16:59.398Z,13.22
2024-02-10T01:19:26.528Z,13.23
2024-02-10T01:21:55.281Z,13.31
2024-02-10T01:24:21.995Z,13.32
2024-02-10T01:26:50.228Z,13.31
2024-02-10T01:29:16.221Z,13.24
2024-02-10T01:31:42.795Z,13.34
2024-02-10T01:34:09.481Z,13.35
2024-02-10T01:36:35.467Z,13.38
2024-02-10T01:39:01.773Z,13.27
2024-02-10T01:41:30.568Z,13.27
2024-02-10T01:43:56.397Z,13.34
2024-02-10T01:46:23.819Z,13.30
2024-02-10T01:48:51.089Z,13.43
2024-02-10T01:51:20.973Z,13.34
2024-02-10T01:53:48.197Z,13.34
2024-02-10T01:56:17.973Z,13.27
2024-02-10T01:58:48.206Z,13.41
2024-02-10T02:01:17.717Z,13.42
2024-02-10T02:03:46.978Z,13.40
2024-02-10T02:06:17.952Z,13.43
2024-02-10T02:08:51.462Z,13.41
2024-02-10T02:11:17.896Z,13.32
2024-02-10T02:13:44.153Z,13.41
2024-02-10T02:16:12.985Z,13.43
2024-02-10T02:18:40.192Z,13.35
2024-02-10T02:21:06.866Z,13.36
2024-02-10T02:23:35.498Z,13.46
2024-02-10T02:26:01.453Z,13.42
2024-02-10T02:28:27.412Z,13.39
2024-02-10T02:30:53.286Z,13.42
2024-02-10T02:33:21.190Z,13.46
2024-02-10T02:35:48.609Z,13.33
2024-02-10T02:38:14.456Z,13.25
2024-02-10T02:40:42.309Z,13.28
2024-02-10T02:43:09.485Z,13.30
2024-02-10T02:45:35.923Z,13.24
2024-02-10T02:48:04.582Z,13.22
2024-02-10T02:50:31.129Z,13.33
2024-02-10T02:53:02.665Z,13.14
2024-02-10T02:55:29.309Z,13.19
2024-02-10T02:57:56.291Z,13.31
2024-02-10T03:00:23.041Z,13.25
2024-02-10T03:02:49.396Z,13.09
2024-02-10T03:05:18.364Z,13.19
2024-02-10T03:07:47.989Z,13.28
2024-02-10T03:10:14.928Z,13.17
2024-02-10T03:12:49.231Z,13.31
2024-02-10T03:15:15.722Z,13.24
2024-02-10T03:17:47.223Z,13.20
2024-02-10T03:20:13.746Z,13.08
2024-02-10T03:22:40.372Z,13.04
2024-02-10T03:25:06.657Z,13.09
2024-02-10T03:27:32.529Z,13.25
2024-02-10T03:30:00.625Z,13.27
2024-02-10T03:32:32.973Z,13.23
2024-02-10T03:34:59.052Z,13.25
2024-02-10T03:37:29.007Z,13.17
2024-02-10T03:39:55.069Z,13.27
2024-02-10T03:42:20.941Z,13.33
2024-02-10T03:44:47.117Z,13.20
2024-02-10T03:47:13.037Z,13.13
2024-02-10T03:49:38.904Z,13.11
2024-02-10T03:52:04.959Z,13.27
2024-02-10T03:54:30.860Z,13.14
2024-02-10T03:56:56.776Z,13.18
2024-02-10T03:59:23.177Z,13.27
2024-02-10T04:01:49.052Z,13.23
2024-02-10T04:04:15.118Z,13.11
2024-02-10T04:06:41.184Z,12.98
2024-02-10T04:09:07.611Z,13.17
2024-02-10T04:11:37.190Z,13.09
2024-02-10T04:14:03.983Z,13.01
2024-02-10T04:16:30.037Z,13.10
2024-02-10T04:18:59.743Z,13.07
2024-02-10T04:21:26.811Z,12.93
2024-02-10T04:23:52.653Z,12.90
2024-02-10T04:26:19.090Z,12.94
2024-02-10T04:28:45.418Z,12.91
2024-02-10T04:31:13.679Z,12.93
2024-02-10T04:33:50.849Z,12.83
2024-02-10T04:36:17.018Z,12.76
2024-02-10T04:38:42.917Z,12.74
2024-02-10T04:41:08.842Z,12.81
2024-02-10T04:43:36.448Z,12.65
2024-02-10T04:46:02.580Z,12.63
2024-02-10T04:48:28.452Z,12.59
2024-02-10T04:50:57.486Z,12.57
2024-02-10T04:53:25.624Z,12.48
2024-02-10T04:55:51.891Z,12.56
2024-02-10T04:58:17.738Z,12.55
2024-02-10T05:00:43.747Z,12.41
2024-02-10T05:03:09.787Z,12.53
2024-02-10T05:05:35.854Z,12.48
2024-02-10T05:08:01.812Z,12.45
2024-02-10T05:10:27.748Z,12.46
2024-02-10T05:12:56.155Z,12.26
2024-02-10T05:15:23.556Z,12.20
2024-02-10T05:17:51.067Z,12.38
2024-02-10T05:20:22.960Z,12.34
2024-02-10T05:22:53.882Z,12.30
2024-02-10T05:25:21.902Z,12.30
2024-02-10T05:27:48.745Z,12.28
2024-02-10T05:30:24.600Z,12.22
2024-02-10T05:32:51.877Z,12.11
2024-02-10T05:35:20.899Z,12.15
2024-02-10T05:37:55.723Z,12.06
2024-02-10T05:40:22.668Z,12.03
2024-02-10T05:42:50.579Z,12.13
2024-02-10T05:45:18.646Z,12.02
2024-02-10T05:47:45.501Z,12.08
2024-02-10T05:50:18.901Z,11.75
2024-02-10T05:52:45.669Z,11.74
2024-02-10T05:55:21.649Z,11.59
2024-02-10T05:57:50.812Z,11.77
2024-02-10T06:00:17.032Z,11.72
2024-02-10T06:02:43.080Z,11.57
2024-02-10T06:05:10.973Z,11.53
2024-02-10T06:07:41.640Z,11.24
2024-02-10T06:10:15.992Z,11.36
2024-02-10T06:12:46.377Z,11.33
2024-02-10T06:15:13.385Z,11.14
2024-02-10T06:17:45.215Z,11.18
2024-02-10T06:20:15.477Z,11.13
2024-02-10T06:22:48.049Z,10.88
2024-02-10T06:25:23.250Z,10.83
2024-02-10T06:27:52.924Z,10.76
2024-02-10T06:30:19.438Z,10.65
2024-02-10T06:32:45.908Z,10.71
2024-02-10T06:35:13.418Z,10.71
2024-02-10T06:37:41.096Z,10.67
2024-02-10T06:40:09.076Z,10.62
2024-02-10T06:42:35.980Z,10.79
2024-02-10T06:45:08.605Z,10.66
2024-02-10T06:47:36.476Z,10.67
2024-02-10T06:50:04.768Z,10.70
2024-02-10T06:52:37.475Z,10.67
2024-02-10T06:55:04.922Z,10.64
2024-02-10T06:57:34.102Z,10.66
2024-02-10T07:00:15.305Z,10.62
2024-02-10T07:02:43.474Z,10.68
2024-02-10T07:05:10.580Z,10.73
2024-02-10T07:07:39.653Z,10.77
2024-02-10T07:10:12.650Z,11.00
2024-02-10T07:12:38.484Z,11.04
2024-02-10T07:15:04.674Z,11.18
2024-02-10T07:17:31.572Z,11.18
2024-02-10T07:19:57.395Z,11.25
2024-02-10T07:22:25.984Z,11.42
2024-02-10T07:24:51.824Z,11.48
2024-02-10T07:27:18.338Z,11.52
2024-02-10T07:29:45.733Z,11.76
2024-02-10T07:32:13.572Z,11.84
2024-02-10T07:34:40.123Z,11.93
2024-02-10T07:37:07.528Z,11.89
2024-02-10T07:39:33.804Z,12.03
2024-02-10T07:42:01.958Z,12.11
2024-02-10T07:44:28.257Z,12.31
2024-02-10T07:46:55.806Z,12.37
2024-02-10T07:49:23.286Z,12.44
2024-02-10T07:51:49.561Z,12.44
2024-02-10T07:54:20.595Z,12.53
2024-02-10T07:56:47.305Z,12.58
2024-02-10T07:59:14.010Z,12.73
2024-02-10T08:01:40.110Z,12.88
2024-02-10T08:04:10.263Z,12.96
2024-02-10T08:06:36.890Z,12.98
2024-02-10T08:09:03.626Z,13.22
2024-02-10T08:11:29.917Z,13.35
2024-02-10T08:13:57.019Z,13.47
2024-02-10T08:16:28.485Z,13.53
2024-02-10T08:18:57.832Z,13.62
2024-02-10T08:21:26.572Z,13.66
2024-02-10T08:23:52.913Z,13.89
2024-02-10T08:26:22.092Z,13.95
2024-02-10T08:28:51.940Z,14.04
2024-02-10T08:31:21.133Z,14.14
2024-02-10T08:33:50.841Z,14.25
2024-02-10T08:36:19.873Z,14.31
2024-02-10T08:38:46.569Z,14.37
2024-02-10T08:41:13.228Z,14.44
2024-02-10T08:43:47.814Z,14.49
2024-02-10T08:46:17.461Z,14.45
2024-02-10T08:48:43.882Z,14.52
2024-02-10T08:51:13.713Z,14.70
2024-02-10T08:53:43.196Z,14.73
2024-02-10T08:56:12.746Z,14.74
2024-02-10T08:58:44.543Z,14.93
2024-02-10T09:01:16.264Z,14.91
2024-02-10T09:03:53.096Z,15.11
2024-02-10T09:06:23.313Z,15.08
2024-02-10T09:08:51.281Z,15.19
2024-02-10T09:11:18.637Z,15.33
2024-02-10T09:13:45.713Z,15.41
2024-02-10T09:16:14.925Z,15.43
2024-02-10T09:18:44.409Z,15.47
2024-02-10T09:21:14.968Z,15.50
2024-02-10T09:23:42.583Z,15.40
2024-02-10T09:26:15.557Z,15.47
2024-02-10T09:28:47.643Z,15.62
2024-02-10T09:31:14.624Z,15.62
2024-02-10T09:33:42.775Z,15.69
2024-02-10T09:36:12.416Z,15.79
2024-02-10T09:38:40.052Z,15.91
2024-02-10T09:41:08.250Z,15.88
2024-02-10T09:43:37.380Z,15.90
2024-02-10T09:46:07.262Z,15.76
2024-02-10T09:48:42.236Z,15.98
2024-02-10T09:51:08.686Z,15.90
2024-02-10T09:53:35.262Z,16.15
2024-02-10T09:56:03.339Z,16.18
2024-02-10T09:58:30.384Z,16.25
2024-02-10T10:01:00.247Z,16.33
2024-02-10T10:03:27.077Z,16.34
2024-02-10T10:05:52.986Z,16.19
2024-02-10T10:08:22.441Z,16.17
2024-02-10T10:10:51.485Z,16.36
2024-02-10T10:13:17.677Z,16.49
2024-02-10T10:15:43.643Z,16.49
2024-02-10T10:18:16.606Z,16.72
2024-02-10T10:20:49.858Z,16.77
2024-02-10T10:23:16.637Z,16.87
2024-02-10T10:25:46.298Z,16.94
2024-02-10T10:28:14.137Z,16.94
2024-02-10T10:30:44.291Z,17.09
2024-02-10T10:33:11.447Z,16.99
2024-02-10T10:35:45.411Z,17.05
2024-02-10T10:38:12.340Z,17.06
2024-02-10T10:40:38.905Z,17.00
2024-02-10T10:43:12.474Z,17.06
2024-02-10T10:45:40.223Z,17.16
2024-02-10T10:48:06.753Z,17.19
2024-02-10T10:50:34.004Z,17.24
2024-02-10T10:53:06.708Z,17.22
2024-02-10T10:55:39.455Z,17.17
2024-02-10T10:58:09.844Z,17.11
2024-02-10T11:00:39.716Z,17.28
2024-02-10T11:03:05.790Z,17.26
2024-02-10T11:05:40.703Z,17.08
2024-02-10T11:08:08.846Z,17.13
2024-02-10T11:10:40.229Z,17.25
2024-02-10T11:13:07.371Z,17.20
2024-02-10T11:15:38.308Z,17.25
2024-02-10T11:18:04.624Z,17.44
2024-02-10T11:20:35.363Z,17.53
2024-02-10T11:23:12.150Z,17.52
2024-02-10T11:25:42.306Z,17.54
2024-02-10T11:28:20.959Z,17.49
2024-02-10T11:30:48.154Z,17.38
2024-02-10T11:33:17.776Z,17.61
2024-02-10T11:35:47.029Z,17.67
2024-02-10T11:38:14.640Z,17.63
2024-02-10T11:40:41.125Z,17.64
2024-02-10T11:43:11.279Z,17.60
2024-02-10T11:45:40.173Z,17.67
2024-02-10T11:48:08.884Z,17.71
2024-02-10T11:50:58.959Z,17.84
2024-02-10T11:53:31.678Z,17.66
2024-02-10T11:55:59.003Z,17.82
2024-02-10T11:58:28.032Z,17.88
2024-02-10T12:00:53.972Z,17.89
2024-02-10T12:03:23.899Z,17.88
2024-02-10T12:05:50.015Z,17.82
2024-02-10T12:08:16.013Z,17.75
2024-02-10T12:10:42.836Z,17.82
2024-02-10T12:13:11.839Z,17.78
2024-02-10T12:15:41.111Z,17.92
2024-02-10T12:18:08.366Z,17.99
2024-02-10T12:20:38.140Z,17.92
2024-02-10T12:23:04.342Z,18.01
2024-02-10T12:25:30.193Z,17.95
2024-02-10T12:27:57.818Z,18.10
2024-02-10T12:30:23.776Z,18.08
2024-02-10T12:32:54.836Z,18.07
2024-02-10T12:35:21.006Z,18.17
2024-02-10T12:37:47.760Z,18.20
2024-02-10T12:40:17.988Z,18.25
2024-02-10T12:42:43.986Z,18.08
2024-02-10T12:45:12.029Z,18.11
2024-02-10T12:47:38.361Z,18.04
2024-02-10T12:50:09.510Z,18.05
2024-02-10T12:52:39.010Z,18.02
2024-02-10T12:55:14.075Z,17.96
2024-02-10T12:57:41.378Z,18.00
2024-02-10T13:00:19.486Z,18.00
2024-02-10T13:02:52.460Z,17.96
2024-02-10T13:05:20.829Z,18.05
2024-02-10T13:07:47.148Z,18.09
2024-02-10T13:10:24.997Z,18.03
2024-02-10T13:12:53.819Z,18.16
2024-02-10T13:15:20.638Z,18.21
2024-02-10T13:17:50.716Z,18.19
2024-02-10T13:20:18.031Z,18.19
2024-02-10T13:22:44.909Z,18.12
2024-02-10T13:25:11.041Z,18.31
2024-02-10T13:27:37.555Z,18.34
2024-02-10T13:30:08.890Z,18.40
2024-02-10T13:32:38.748Z,18.24
2024-02-10T13:35:18.303Z,18.27
2024-02-10T13:38:05.345Z,18.22
2024-02-10T13:40:50.610Z,18.32
2024-02-10T13:43:35.243Z,18.32
2024-02-10T13:46:19.465Z,18.23
2024-02-10T13:49:04.637Z,18.21
2024-02-10T13:51:48.879Z,18.17
2024-02-10T13:54:33.073Z,18.20
2024-02-10T13:57:17.837Z,18.15
2024-02-10T13:59:43.760Z,18.03
2024-02-10T14:02:18.341Z,18.04
2024-02-10T14:04:48.666Z,18.21
2024-02-10T14:07:31.353Z,18.10
2024-02-10T14:10:12.276Z,18.24
2024-02-10T14:12:46.309Z,18.21
2024-02-10T14:15:21.093Z,18.15
2024-02-10T14:17:48.237Z,18.14
2024-02-10T14:20:20.382Z,18.11
2024-02-10T14:22:47.960Z,18.09
2024-02-10T14:25:24.336Z,17.99
2024-02-10T14:27:59.235Z,18.02
2024-02-10T14:30:34.732Z,17.99
2024-02-10T14:33:16.309Z,17.93
2024-02-10T14:35:58.815Z,18.05
2024-02-10T14:38:25.171Z,18.05
2024-02-10T14:40:52.332Z,18.04
2024-02-10T14:43:19.022Z,17.98
2024-02-10T14:45:45.573Z,17.99
2024-02-10T14:48:11.599Z,17.81
2024-02-10T14:50:37.669Z,17.76
2024-02-10T14:53:03.781Z,17.79
2024-02-10T14:55:31.099Z,17.82
2024-02-10T14:57:57.067Z,17.80
2024-02-10T15:00:31.318Z,17.89
2024-02-10T15:02:59.508Z,17.78
2024-02-10T15:05:28.170Z,17.86
2024-02-10T15:08:00.405Z,17.74
2024-02-10T15:10:27.533Z,17.80
2024-02-10T15:12:55.467Z,17.72
2024-02-10T15:15:21.454Z,17.72
2024-02-10T15:17:48.147Z,17.66
2024-02-10T15:20:14.073Z,17.45
2024-02-10T15:22:41.149Z,17.54
2024-02-10T15:25:07.608Z,17.44
2024-02-10T15:27:34.916Z,17.47
2024-02-10T15:30:01.553Z,17.38
2024-02-10T15:32:27.790Z,17.41
2024-02-10T15:35:00.480Z,17.38
2024-02-10T15:37:29.053Z,17.17
2024-02-10T15:39:55.218Z,17.21
2024-02-10T15:42:21.071Z,17.20
2024-02-10T15:44:47.726Z,17.10
2024-02-10T15:47:13.954Z,17.18
2024-02-10T15:49:42.772Z,17.15
2024-02-10T15:52:09.845Z,17.07
2024-02-10T15:54:35.718Z,16.94
2024-02-10T15:57:02.790Z,17.07
2024-02-10T15:59:33.341Z,17.00
2024-02-10T16:01:59.221Z,17.01
2024-02-10T16:04:25.093Z,16.97
2024-02-10T16:06:51.301Z,16.86
2024-02-10T16:09:17.900Z,16.92
2024-02-10T16:11:43.845Z,16.84
2024-02-10T16:14:11.979Z,16.87
2024-02-10T16:16:38.479Z,16.76
2024-02-10T16:19:05.170Z,16.74
2024-02-10T16:21:31.096Z,16.75
2024-02-10T16:24:00.152Z,16.54
2024-02-10T16:26:26.665Z,16.60
2024-02-10T16:28:53.254Z,16.66
2024-02-10T16:31:21.180Z,16.66
2024-02-10T16:33:51.882Z,16.47
2024-02-10T16:36:22.139Z,16.61
2024-02-10T16:38:47.996Z,16.58
2024-02-10T16:41:22.906Z,16.50
2024-02-10T16:43:48.990Z,16.56
2024-02-10T16:46:16.732Z,16.57
2024-02-10T16:48:46.531Z,16.52
2024-02-10T16:51:32.469Z,16.55
2024-02-10T16:53:59.842Z,16.43
2024-02-10T16:56:25.894Z,16.51
2024-02-10T16:58:54.636Z,16.49
2024-02-10T17:01:20.654Z,16.48
2024-02-10T17:03:46.656Z,16.30
2024-02-10T17:06:13.095Z,16.37
2024-02-10T17:08:39.038Z,16.32
2024-02-10T17:11:06.217Z,16.29
2024-02-10T17:13:32.145Z,16.38
2024-02-10T17:15:58.070Z,16.24
2024-02-10T17:18:24.179Z,16.20
2024-02-10T17:21:03.287Z,16.19
2024-02-10T17:23:32.235Z,16.20
2024-02-10T17:26:07.103Z,16.16
2024-02-10T17:28:33.213Z,16.11
2024-02-10T17:30:59.195Z,16.15
2024-02-10T17:33:27.087Z,16.17
2024-02-10T17:35:53.580Z,16.08
2024-02-10T17:38:21.421Z,16.24
2024-02-10T17:40:48.396Z,16.26
2024-02-10T17:43:17.732Z,16.21
2024-02-10T17:45:44.346Z,16.21
2024-02-10T17:48:20.422Z,16.21
2024-02-10T17:50:54.219Z,16.23
2024-02-10T17:53:22.481Z,16.20
2024-02-10T17:55:50.416Z,16.15
2024-02-10T17:58:19.042Z,16.04
2024-02-10T18:00:51.815Z,16.14
2024-02-10T18:03:23.285Z,15.99
2024-02-10T18:05:51.225Z,16.10
2024-02-10T18:08:20.060Z,16.09
2024-02-10T18:10:49.538Z,15.96
2024-02-10T18:13:17.537Z,15.95
2024-02-10T18:15:44.305Z,16.00
2024-02-10T18:18:12.811Z,15.99
2024-02-10T18:20:39.141Z,16.05
2024-02-10T18:23:07.188Z,15.84
2024-02-10T18:25:33.659Z,15.71
2024-02-10T18:28:04.355Z,15.87
2024-02-10T18:30:30.324Z,15.90
2024-02-10T18:32:56.273Z,15.82
2024-02-10T18:35:25.275Z,15.86
2024-02-10T18:37:55.261Z,15.78
2024-02-10T18:40:27.099Z,15.75
2024-02-10T18:42:54.057Z,15.87
2024-02-10T18:45:20.649Z,15.77
2024-02-10T18:47:47.469Z,15.87
2024-02-10T18:50:19.907Z,15.83
2024-02-10T18:52:50.097Z,15.76
2024-02-10T18:55:19.448Z,15.74
2024-02-10T18:57:46.250Z,15.69
2024-02-10T19:00:21.363Z,15.70
2024-02-10T19:02:49.759Z,15.62
2024-02-10T19:05:16.788Z,15.71
2024-02-10T19:07:43.864Z,15.64
2024-02-10T19:10:10.581Z,15.58
2024-02-10T19:12:37.544Z,15.56
2024-02-10T19:15:10.321Z,15.45
2024-02-10T19:17:37.744Z,15.44
2024-02-10T19:20:08.019Z,15.11
2024-02-10T19:22:36.961Z,15.21
2024-02-10T19:25:10.922Z,15.37
2024-02-10T19:27:38.900Z,15.28
2024-02-10T19:30:11.868Z,15.14
2024-02-10T19:32:42.324Z,15.36
2024-02-10T19:35:22.696Z,15.27
2024-02-10T19:37:49.596Z,15.31
2024-02-10T19:40:17.017Z,15.27
2024-02-10T19:42:43.941Z,15.22
2024-02-10T19:45:14.669Z,15.24
2024-02-10T19:47:41.305Z,15.19
2024-02-10T19:50:09.356Z,15.19
2024-02-10T19:52:37.805Z,15.17
2024-02-10T19:55:04.232Z,15.22
2024-02-10T19:57:30.759Z,15.12
2024-02-10T19:59:59.328Z,15.11
2024-02-10T20:02:25.744Z,15.20
2024-02-10T20:04:54.820Z,15.19
2024-02-10T20:07:20.993Z,15.12
2024-02-10T20:09:50.623Z,15.12
2024-02-10T20:12:16.539Z,15.10
2024-02-10T20:14:42.563Z,15.09
2024-02-10T20:17:10.708Z,15.10
2024-02-10T20:19:42.426Z,15.05
2024-02-10T20:22:09.320Z,15.04
2024-02-10T20:24:36.150Z,14.95
2024-02-10T20:27:08.796Z,14.84
2024-02-10T20:29:36.198Z,14.93
2024-02-10T20:32:03.288Z,14.88
2024-02-10T20:34:31.866Z,14.91
2024-02-10T20:36:58.355Z,14.91
2024-02-10T20:39:28.388Z,14.86
2024-02-10T20:41:58.602Z,14.71
2024-02-10T20:44:27.150Z,14.78
2024-02-10T20:46:56.160Z,14.77
2024-02-10T20:49:25.522Z,14.81
2024-02-10T20:51:55.280Z,14.79
2024-02-10T20:54:21.927Z,14.80
2024-02-10T20:56:49.936Z,14.71
2024-02-10T20:59:18.061Z,14.75
2024-02-10T21:01:43.963Z,14.75
2024-02-10T21:04:13.406Z,14.54
2024-02-10T21:06:40.965Z,14.65
2024-02-10T21:09:11.103Z,14.69
2024-02-10T21:11:41.002Z,14.55
2024-02-10T21:14:13.864Z,14.61
2024-02-10T21:16:42.071Z,14.58
2024-02-10T21:19:09.168Z,14.53
2024-02-10T21:21:37.448Z,14.44
2024-02-10T21:24:03.622Z,14.41
2024-02-10T21:26:31.934Z,14.55
2024-02-10T21:28:57.856Z,14.49
2024-02-10T21:31:23.826Z,14.52
2024-02-10T21:33:51.155Z,14.40
2024-02-10T21:36:19.922Z,14.46
2024-02-10T21:38:46.223Z,14.24
2024-02-10T21:41:12.174Z,14.35
2024-02-10T21:43:40.194Z,14.27
2024-02-10T21:46:06.334Z,14.17
2024-02-10T21:48:32.251Z,14.11
2024-02-10T21:50:58.233Z,14.07
2024-02-10T21:53:26.066Z,14.00
2024-02-10T21:55:51.976Z,14.01
2024-02-10T21:58:18.956Z,13.92
2024-02-10T22:00:44.792Z,13.93
2024-02-10T22:03:10.724Z,13.90
2024-02-10T22:05:36.879Z,13.86
2024-02-10T22:08:03.052Z,13.73
2024-02-10T22:10:31.071Z,13.76
2024-02-10T22:12:56.960Z,13.76
2024-02-10T22:15:22.838Z,13.68
2024-02-10T22:17:48.933Z,13.58
2024-02-10T22:20:16.648Z,13.58
2024-02-10T22:22:43.230Z,13.38
2024-02-10T22:25:10.932Z,13.47
2024-02-10T22:27:38.187Z,13.43
2024-02-10T22:30:07.542Z,13.36
2024-02-10T22:32:33.435Z,13.37
2024-02-10T22:34:59.629Z,13.32
2024-02-10T22:37:25.859Z,13.31
2024-02-10T22:39:52.691Z,13.20
2024-02-10T22:42:23.859Z,13.27
2024-02-10T22:44:51.912Z,13.22
2024-02-10T22:47:19.071Z,13.17
2024-02-10T22:49:46.347Z,13.16
2024-02-10T22:52:22.223Z,13.15
2024-02-10T22:54:52.694Z,13.08
2024-02-10T22:57:19.031Z,13.06
2024-02-10T22:59:45.574Z,13.14
2024-02-10T23:02:16.440Z,13.10
2024-02-10T23:04:46.604Z,13.03
2024-02-10T23:07:14.664Z,12.99
2024-02-10T23:09:43.476Z,12.91
2024-02-10T23:12:12.639Z,13.00
2024-02-10T23:14:45.939Z,12.88
2024-02-10T23:17:19.588Z,12.77
2024-02-10T23:19:53.144Z,12.86
2024-02-10T23:22:31.949Z,12.77
2024-02-10T23:24:58.930Z,12.66
2024-02-10T23:27:28.351Z,12.78
2024-02-10T23:29:55.455Z,12.73
2024-02-10T23:32:23.488Z,12.72
2024-02-10T23:34:50.472Z,12.71
2024-02-10T23:37:22.347Z,12.67
2024-02-10T23:39:50.424Z,12.66
2024-02-10T23:42:16.751Z,12.65
2024-02-10T23:44:42.975Z,12.77
2024-02-10T23:47:14.054Z,12.68
2024-02-10T23:49:44.666Z,12.69
2024-02-10T23:52:14.424Z,12.57
2024-02-10T23:54:42.099Z,12.52
2024-02-10T23:57:09.497Z,12.74
2024-02-10T23:59:38.853Z,12.68
